createdAt,value
2019-01-29T00:00:01.770Z,38.23
2019-01-29T00:02:29.268Z,30.43
2019-01-29T00:04:56.740Z,30.37
2019-01-29T00:07:24.201Z,33.33
2019-01-29T00:09:51.772Z,27.03
2019-01-29T00:12:19.252Z,35.23
2019-01-29T00:14:46.789Z,31.90
2019-01-29T00:17:14.279Z,31.73
2019-01-29T00:19:41.750Z,35.27
2019-01-29T00:22:09.245Z,29.17
2019-01-29T00:24:36.741Z,35.50
2019-01-29T00:27:04.280Z,49.30
2019-01-29T00:29:31.818Z,43.97
2019-01-29T00:31:59.328Z,46.00
2019-01-29T00:34:26.797Z,40.70
2019-01-29T00:36:54.294Z,42.93
2019-01-29T00:39:21.813Z,41.90
2019-01-29T00:41:49.348Z,37.20
2019-01-29T00:44:16.875Z,38.03
2019-01-29T00:46:44.371Z,44.70
2019-01-29T00:49:11.848Z,39.47
2019-01-29T00:51:39.316Z,45.10
2019-01-29T00:54:06.821Z,44.23
2019-01-29T00:56:34.301Z,39.93
2019-01-29T00:59:01.993Z,42.00
2019-01-29T01:01:29.473Z,41.40
2019-01-29T01:03:57.045Z,41.40
2019-01-29T01:06:24.546Z,42.23
2019-01-29T01:08:52.035Z,39.70
2019-01-29T01:11:19.512Z,39.10
2019-01-29T01:13:47.115Z,43.20
2019-01-29T01:16:14.587Z,45.17
2019-01-29T01:18:42.096Z,46.97
2019-01-29T01:21:09.877Z,46.47
2019-01-29T01:23:37.295Z,44.17
2019-01-29T01:26:04.816Z,49.97
2019-01-29T01:28:32.383Z,42.80
2019-01-29T01:30:59.919Z,39.70
2019-01-29T01:33:27.405Z,33.80
2019-01-29T01:35:54.912Z,38.10
2019-01-29T01:38:22.376Z,29.27
2019-01-29T01:40:49.855Z,30.87
2019-01-29T01:43:17.361Z,32.60
2019-01-29T01:45:44.847Z,30.67
2019-01-29T01:48:12.419Z,29.43
2019-01-29T01:50:39.903Z,29.87
2019-01-29T01:53:07.381Z,30.37
2019-01-29T01:55:34.883Z,36.67
2019-01-29T01:58:02.444Z,34.10
2019-01-29T02:00:30.162Z,29.20
2019-01-29T02:02:57.673Z,34.30
2019-01-29T02:05:25.130Z,30.53
2019-01-29T02:07:52.607Z,28.90
2019-01-29T02:10:24.724Z,28.30
2019-01-29T02:12:52.195Z,31.10
2019-01-29T02:15:19.655Z,30.33
2019-01-29T02:17:47.665Z,26.50
2019-01-29T02:20:16.248Z,30.17
2019-01-29T02:22:43.807Z,36.30
2019-01-29T02:25:11.402Z,35.90
2019-01-29T02:27:38.879Z,38.03
2019-01-29T02:30:07.918Z,43.57
2019-01-29T02:32:35.412Z,40.63
2019-01-29T02:35:02.887Z,36.30
2019-01-29T02:37:30.432Z,40.43
2019-01-29T02:39:58.009Z,37.77
2019-01-29T02:42:25.567Z,37.57
2019-01-29T02:44:53.053Z,40.33
2019-01-29T02:47:20.654Z,37.03
2019-01-29T02:49:48.194Z,47.87
2019-01-29T02:52:15.675Z,38.23
2019-01-29T02:54:43.159Z,44.20
2019-01-29T02:57:10.649Z,43.97
2019-01-29T02:59:38.217Z,43.80
2019-01-29T03:02:05.893Z,43.23
2019-01-29T03:04:33.428Z,50.87
2019-01-29T03:07:00.995Z,46.07
2019-01-29T03:09:28.504Z,43.40
2019-01-29T03:11:56.051Z,46.23
2019-01-29T03:14:23.511Z,45.97
2019-01-29T03:16:50.947Z,45.20
2019-01-29T03:19:18.416Z,43.00
2019-01-29T03:21:45.912Z,47.93
2019-01-29T03:24:13.412Z,48.43
2019-01-29T03:26:40.880Z,42.57
2019-01-29T03:29:08.343Z,52.43
2019-01-29T03:31:35.841Z,40.53
2019-01-29T03:34:03.308Z,48.93
2019-01-29T03:36:30.766Z,44.20
2019-01-29T03:38:58.269Z,40.03
2019-01-29T03:41:25.808Z,44.20
2019-01-29T03:43:53.375Z,46.13
2019-01-29T03:46:20.872Z,48.00
2019-01-29T03:48:48.413Z,51.03
2019-01-29T03:51:15.880Z,49.60
2019-01-29T03:53:43.376Z,48.30
2019-01-29T03:56:10.842Z,50.60
2019-01-29T03:58:38.344Z,52.67
2019-01-29T04:01:05.946Z,47.27
2019-01-29T04:03:33.424Z,50.37
2019-01-29T04:06:00.964Z,41.37
2019-01-29T04:08:28.499Z,48.43
2019-01-29T04:10:55.964Z,52.13
2019-01-29T04:13:23.494Z,49.80
2019-01-29T04:15:51.001Z,44.37
2019-01-29T04:18:18.478Z,48.43
2019-01-29T04:20:45.940Z,48.67
2019-01-29T04:23:13.432Z,44.17
2019-01-29T04:25:40.900Z,52.20
2019-01-29T04:28:08.364Z,44.70
2019-01-29T04:30:35.862Z,47.90
2019-01-29T04:33:03.360Z,48.17
2019-01-29T04:35:30.823Z,44.53
2019-01-29T04:37:58.309Z,40.73
2019-01-29T04:40:25.849Z,42.60
2019-01-29T04:42:53.320Z,44.80
2019-01-29T04:45:20.792Z,33.67
2019-01-29T04:47:48.368Z,35.53
2019-01-29T04:50:16.760Z,38.50
2019-01-29T04:52:44.353Z,36.80
2019-01-29T04:55:13.110Z,38.87
2019-01-29T04:57:40.755Z,38.33
2019-01-29T05:00:09.758Z,42.23
2019-01-29T05:02:37.523Z,38.97
2019-01-29T05:05:06.713Z,35.43
2019-01-29T05:07:34.198Z,38.60
2019-01-29T05:10:02.007Z,33.37
2019-01-29T05:12:29.499Z,35.27
2019-01-29T05:14:57.117Z,34.43
2019-01-29T05:17:24.581Z,38.40
2019-01-29T05:19:52.175Z,37.53
2019-01-29T05:22:19.658Z,36.57
2019-01-29T05:24:47.236Z,41.60
2019-01-29T05:27:14.735Z,38.50
2019-01-29T05:29:42.217Z,34.17
2019-01-29T05:32:09.790Z,39.97
2019-01-29T05:34:37.246Z,35.27
2019-01-29T05:37:04.750Z,33.33
2019-01-29T05:39:32.255Z,36.27
2019-01-29T05:41:59.732Z,31.07
2019-01-29T05:44:27.195Z,28.90
2019-01-29T05:46:54.739Z,37.03
2019-01-29T05:49:22.214Z,34.17
2019-01-29T05:51:49.672Z,34.93
2019-01-29T05:54:17.203Z,31.07
2019-01-29T05:56:44.666Z,34.60
2019-01-29T05:59:12.139Z,41.80
2019-01-29T06:01:39.559Z,29.13
2019-01-29T06:04:07.067Z,32.37
2019-01-29T06:06:34.582Z,33.80
2019-01-29T06:09:02.086Z,34.47
2019-01-29T06:11:29.533Z,37.50
2019-01-29T06:13:57.043Z,35.27
2019-01-29T06:16:24.515Z,34.00
2019-01-29T06:18:51.993Z,30.77
2019-01-29T06:21:19.483Z,36.47
2019-01-29T06:23:47.044Z,26.80
2019-01-29T06:26:14.603Z,31.70
2019-01-29T06:28:42.104Z,34.17
2019-01-29T06:31:09.630Z,31.47
2019-01-29T06:33:37.104Z,30.00
2019-01-29T06:36:04.591Z,31.27
2019-01-29T06:38:32.055Z,33.27
2019-01-29T06:40:59.599Z,33.40
2019-01-29T06:43:27.106Z,33.27
2019-01-29T06:45:54.567Z,28.90
2019-01-29T06:48:22.145Z,32.97
2019-01-29T06:50:49.648Z,31.73
2019-01-29T06:53:17.138Z,35.73
2019-01-29T06:55:44.609Z,32.80
2019-01-29T06:58:12.152Z,36.43
2019-01-29T07:00:39.643Z,34.80
2019-01-29T07:03:07.111Z,30.47
2019-01-29T07:05:34.690Z,34.93
2019-01-29T07:08:02.189Z,37.63
2019-01-29T07:10:29.967Z,32.93
2019-01-29T07:12:57.446Z,32.90
2019-01-29T07:15:44.168Z,35.40
2019-01-29T07:18:31.608Z,32.80
2019-01-29T07:20:59.252Z,33.93
2019-01-29T07:23:26.728Z,33.20
2019-01-29T07:25:54.216Z,34.10
2019-01-29T07:28:21.687Z,36.17
2019-01-29T07:30:49.150Z,33.63
2019-01-29T07:33:16.649Z,31.67
2019-01-29T07:35:44.118Z,27.80
2019-01-29T07:38:11.591Z,31.47
2019-01-29T07:40:39.150Z,24.13
2019-01-29T07:43:06.576Z,28.03
2019-01-29T07:45:34.206Z,25.30
2019-01-29T07:48:01.665Z,26.37
2019-01-29T07:50:29.246Z,28.97
2019-01-29T07:52:56.715Z,27.20
2019-01-29T07:55:24.271Z,26.70
2019-01-29T07:57:51.875Z,27.47
2019-01-29T08:00:19.430Z,26.80
2019-01-29T08:02:47.336Z,31.30
2019-01-29T08:05:14.982Z,30.73
2019-01-29T08:07:42.455Z,32.40
2019-01-29T08:10:11.413Z,33.53
2019-01-29T08:12:38.910Z,34.53
2019-01-29T08:15:07.927Z,32.30
2019-01-29T08:17:35.401Z,30.33
2019-01-29T08:20:02.907Z,31.53
2019-01-29T08:22:30.369Z,31.80
2019-01-29T08:25:01.711Z,27.40
2019-01-29T08:27:26.999Z,32.73
2019-01-29T08:29:54.474Z,34.93
2019-01-29T08:32:21.944Z,37.80
2019-01-29T08:34:50.795Z,37.03
2019-01-29T08:37:18.263Z,39.27
2019-01-29T08:39:45.806Z,32.80
2019-01-29T08:42:13.484Z,32.00
2019-01-29T08:44:41.005Z,34.83
2019-01-29T08:47:08.480Z,35.10
2019-01-29T08:49:35.976Z,39.03
2019-01-29T08:52:03.436Z,33.10
2019-01-29T08:54:30.907Z,31.50
2019-01-29T08:56:58.378Z,36.83
2019-01-29T08:59:25.799Z,34.30
2019-01-29T09:01:53.320Z,33.00
2019-01-29T09:04:20.785Z,30.27
2019-01-29T09:06:48.256Z,37.47
2019-01-29T09:09:15.771Z,32.80
2019-01-29T09:11:43.243Z,30.03
2019-01-29T09:14:10.717Z,32.80
2019-01-29T09:16:38.207Z,32.57
2019-01-29T09:19:05.676Z,29.70
2019-01-29T09:21:33.163Z,28.43
2019-01-29T09:24:00.654Z,29.20
2019-01-29T09:26:28.138Z,31.27
2019-01-29T09:28:55.602Z,31.17
2019-01-29T09:31:23.132Z,27.63
2019-01-29T09:33:50.629Z,29.47
2019-01-29T09:36:18.087Z,29.00
2019-01-29T09:38:45.566Z,25.00
2019-01-29T09:41:13.063Z,24.93
2019-01-29T09:43:40.527Z,29.70
2019-01-29T09:46:08.279Z,25.30
2019-01-29T09:48:35.832Z,22.60
2019-01-29T09:51:03.303Z,19.60
2019-01-29T09:53:30.922Z,15.73
2019-01-29T09:55:58.531Z,14.20
2019-01-29T09:58:26.151Z,16.80
2019-01-29T10:00:53.710Z,13.27
2019-01-29T10:03:21.219Z,8.80
2019-01-29T10:05:48.691Z,8.03
2019-01-29T10:08:16.155Z,5.90
2019-01-29T10:10:43.667Z,2.77
2019-01-29T10:13:11.149Z,1.27
2019-01-29T10:15:38.818Z,1.43
2019-01-29T10:18:06.376Z,1.13
2019-01-29T10:20:34.057Z,1.83
2019-01-29T10:23:01.545Z,1.10
2019-01-29T10:25:37.079Z,3.50
2019-01-29T10:27:58.260Z,0.90
2019-01-29T10:30:26.370Z,1.40
2019-01-29T10:32:54.389Z,0.90
2019-01-29T10:35:22.659Z,1.40
2019-01-29T10:37:50.196Z,1.73
2019-01-29T10:40:18.851Z,1.20
2019-01-29T10:42:46.356Z,2.03
2019-01-29T10:45:15.951Z,2.57
2019-01-29T10:47:43.492Z,3.00
2019-01-29T10:50:12.451Z,1.23
2019-01-29T10:52:39.943Z,0.70
2019-01-29T10:55:08.208Z,3.03
2019-01-29T10:57:35.767Z,1.17
2019-01-29T11:00:04.795Z,2.20
2019-01-29T11:02:32.363Z,1.30
2019-01-29T11:04:59.867Z,1.17
2019-01-29T11:07:27.361Z,1.53
2019-01-29T11:09:54.816Z,1.60
2019-01-29T11:12:22.311Z,2.10
2019-01-29T11:14:50.054Z,2.97
2019-01-29T11:17:17.610Z,1.40
2019-01-29T11:19:45.114Z,1.53
2019-01-29T11:22:12.568Z,1.73
2019-01-29T11:24:40.071Z,1.20
2019-01-29T11:27:07.583Z,1.90
2019-01-29T11:29:35.056Z,1.40
2019-01-29T11:32:02.586Z,2.30
2019-01-29T11:34:30.067Z,1.37
2019-01-29T11:36:57.584Z,0.80
2019-01-29T11:39:25.042Z,1.07
2019-01-29T11:41:52.847Z,2.20
2019-01-29T11:44:20.308Z,2.17
2019-01-29T11:46:47.825Z,1.27
2019-01-29T11:49:15.363Z,1.43
2019-01-29T11:51:42.912Z,1.43
2019-01-29T11:54:11.200Z,1.03
2019-01-29T11:56:38.659Z,1.00
2019-01-29T11:59:06.169Z,2.00
2019-01-29T12:01:33.682Z,1.63
2019-01-29T12:04:01.134Z,1.17
2019-01-29T12:06:28.696Z,1.23
2019-01-29T12:08:56.155Z,1.13
2019-01-29T12:11:23.640Z,1.73
2019-01-29T12:13:51.189Z,1.10
2019-01-29T12:16:19.569Z,1.20
2019-01-29T12:18:47.099Z,4.97
2019-01-29T12:21:14.598Z,1.20
2019-01-29T12:23:42.090Z,1.27
2019-01-29T12:26:13.301Z,4.57
2019-01-29T12:28:38.696Z,5.80
2019-01-29T12:31:06.515Z,2.63
2019-01-29T12:33:34.048Z,1.40
2019-01-29T12:36:01.659Z,1.63
2019-01-29T12:38:39.447Z,1.43
2019-01-29T12:41:16.972Z,2.10
2019-01-29T12:43:56.499Z,2.00
2019-01-29T12:46:29.725Z,1.80
2019-01-29T12:48:57.356Z,2.20
2019-01-29T12:51:26.477Z,1.30
2019-01-29T12:54:03.731Z,1.10
2019-01-29T12:56:41.338Z,2.07
2019-01-29T12:59:08.387Z,2.00
2019-01-29T13:01:35.967Z,1.70
2019-01-29T13:04:14.712Z,1.90
2019-01-29T13:06:41.617Z,1.80
2019-01-29T13:09:09.265Z,0.93
2019-01-29T13:11:36.796Z,4.20
2019-01-29T13:14:04.620Z,1.23
2019-01-29T13:16:32.077Z,1.23
2019-01-29T13:18:59.557Z,2.93
2019-01-29T13:21:27.096Z,1.50
2019-01-29T13:23:54.584Z,1.40
2019-01-29T13:26:29.499Z,1.00
2019-01-29T13:28:51.161Z,1.20
2019-01-29T13:31:18.707Z,2.10
2019-01-29T13:33:46.169Z,1.53
2019-01-29T13:36:13.720Z,2.80
2019-01-29T13:38:41.211Z,2.37
2019-01-29T13:41:08.677Z,1.80
2019-01-29T13:43:36.228Z,3.33
2019-01-29T13:46:03.763Z,4.30
2019-01-29T13:48:31.324Z,5.97
2019-01-29T13:50:59.293Z,4.47
2019-01-29T13:53:27.060Z,1.57
2019-01-29T13:55:54.772Z,1.23
2019-01-29T13:58:22.295Z,2.30
2019-01-29T14:00:49.860Z,2.33
2019-01-29T14:03:18.686Z,0.97
2019-01-29T14:05:46.491Z,1.87
2019-01-29T14:08:14.029Z,1.67
2019-01-29T14:10:41.924Z,2.63
2019-01-29T14:13:09.384Z,8.30
2019-01-29T14:15:38.491Z,2.30
2019-01-29T14:18:06.278Z,8.30
2019-01-29T14:20:33.738Z,3.40
2019-01-29T14:23:04.359Z,0.90
2019-01-29T14:25:31.939Z,1.30
2019-01-29T14:27:59.416Z,10.43
2019-01-29T14:30:30.185Z,8.33
2019-01-29T14:32:57.677Z,2.27
2019-01-29T14:35:25.162Z,4.50
2019-01-29T14:38:00.335Z,3.60
2019-01-29T14:40:28.024Z,4.80
2019-01-29T14:42:55.491Z,6.07
2019-01-29T14:45:24.221Z,13.70
2019-01-29T14:47:51.941Z,12.57
2019-01-29T14:50:19.435Z,13.73
2019-01-29T14:52:47.187Z,14.10
2019-01-29T14:55:14.837Z,13.93
2019-01-29T14:57:42.313Z,13.40
2019-01-29T15:00:17.310Z,12.53
2019-01-29T15:02:44.874Z,14.47
2019-01-29T15:05:12.609Z,9.27
2019-01-29T15:07:40.102Z,11.00
2019-01-29T15:10:09.257Z,10.10
2019-01-29T15:12:36.733Z,11.77
2019-01-29T15:15:05.676Z,18.03
2019-01-29T15:17:34.830Z,14.47
2019-01-29T15:20:02.359Z,16.63
2019-01-29T15:22:30.017Z,17.73
2019-01-29T15:24:57.500Z,19.30
2019-01-29T15:27:24.973Z,16.17
2019-01-29T15:29:52.470Z,18.10
2019-01-29T15:32:20.022Z,17.23
2019-01-29T15:34:47.765Z,17.73
2019-01-29T15:37:15.265Z,17.50
2019-01-29T15:39:42.723Z,14.23
2019-01-29T15:42:10.291Z,17.10
2019-01-29T15:44:37.847Z,16.67
2019-01-29T15:47:05.399Z,15.53
2019-01-29T15:49:32.980Z,14.70
2019-01-29T15:52:00.559Z,14.97
2019-01-29T15:54:28.024Z,15.47
2019-01-29T15:56:55.699Z,15.10
2019-01-29T15:59:23.235Z,14.53
2019-01-29T16:01:50.715Z,14.13
2019-01-29T16:04:19.320Z,17.60
2019-01-29T16:06:47.019Z,14.10
2019-01-29T16:09:14.508Z,14.43
2019-01-29T16:11:41.964Z,17.73
2019-01-29T16:14:09.488Z,15.37
2019-01-29T16:16:36.953Z,15.00
2019-01-29T16:19:04.522Z,18.20
2019-01-29T16:21:32.032Z,11.13
2019-01-29T16:23:59.512Z,15.67
2019-01-29T16:26:27.040Z,12.03
2019-01-29T16:28:54.535Z,18.63
2019-01-29T16:31:22.116Z,16.40
2019-01-29T16:33:49.623Z,13.90
2019-01-29T16:36:17.142Z,11.83
2019-01-29T16:38:44.694Z,19.17
2019-01-29T16:41:12.208Z,11.63
2019-01-29T16:43:39.672Z,14.30
2019-01-29T16:46:07.234Z,11.33
2019-01-29T16:48:34.736Z,12.50
2019-01-29T16:51:02.202Z,11.47
2019-01-29T16:53:29.773Z,11.80
2019-01-29T16:55:57.284Z,11.90
2019-01-29T16:58:24.778Z,14.43
2019-01-29T17:00:52.249Z,15.93
2019-01-29T17:03:19.847Z,29.17
2019-01-29T17:05:47.321Z,12.40
2019-01-29T17:08:14.951Z,16.60
2019-01-29T17:10:42.510Z,13.83
2019-01-29T17:13:09.984Z,16.20
2019-01-29T17:15:38.125Z,13.50
2019-01-29T17:18:06.800Z,14.17
2019-01-29T17:20:35.673Z,13.70
2019-01-29T17:23:03.982Z,11.97
2019-01-29T17:25:31.474Z,17.07
2019-01-29T17:27:58.961Z,12.50
2019-01-29T17:30:30.953Z,12.33
2019-01-29T17:32:58.480Z,15.00
2019-01-29T17:35:26.039Z,15.00
2019-01-29T17:37:53.651Z,12.63
2019-01-29T17:40:21.920Z,16.73
2019-01-29T17:42:49.390Z,12.73
2019-01-29T17:45:18.368Z,13.47
2019-01-29T17:47:45.853Z,15.03
2019-01-29T17:50:14.797Z,17.53
2019-01-29T17:52:42.369Z,13.87
2019-01-29T17:55:12.714Z,12.63
2019-01-29T17:57:50.313Z,16.47
2019-01-29T18:00:10.979Z,16.80
2019-01-29T18:02:38.617Z,20.80
2019-01-29T18:05:06.392Z,18.00
2019-01-29T18:07:33.901Z,14.97
2019-01-29T18:10:01.387Z,19.80
2019-01-29T18:12:28.873Z,14.97
2019-01-29T18:14:56.407Z,17.50
2019-01-29T18:17:23.996Z,16.83
2019-01-29T18:19:51.478Z,14.63
2019-01-29T18:22:18.945Z,18.07
2019-01-29T18:24:46.451Z,16.27
2019-01-29T18:27:13.922Z,23.53
2019-01-29T18:29:41.423Z,15.80
2019-01-29T18:32:08.935Z,19.80
2019-01-29T18:34:36.413Z,19.37
2019-01-29T18:37:03.983Z,22.87
2019-01-29T18:39:31.493Z,17.20
2019-01-29T18:41:58.896Z,14.57
2019-01-29T18:44:26.360Z,17.83
2019-01-29T18:46:53.870Z,18.10
2019-01-29T18:49:21.380Z,23.77
2019-01-29T18:51:48.931Z,18.77
2019-01-29T18:54:16.463Z,19.60
2019-01-29T18:56:43.986Z,23.80
2019-01-29T18:59:11.462Z,18.80
2019-01-29T19:01:39.009Z,18.33
2019-01-29T19:04:06.511Z,23.97
2019-01-29T19:06:34.064Z,20.80
2019-01-29T19:09:01.556Z,19.43
2019-01-29T19:11:29.148Z,20.97
2019-01-29T19:13:56.675Z,24.93
2019-01-29T19:16:24.216Z,17.60
2019-01-29T19:18:51.774Z,19.37
2019-01-29T19:21:19.341Z,21.50
2019-01-29T19:23:46.840Z,17.10
2019-01-29T19:26:14.303Z,19.57
2019-01-29T19:28:41.950Z,24.07
2019-01-29T19:31:09.505Z,19.17
2019-01-29T19:33:36.991Z,22.70
2019-01-29T19:36:04.487Z,20.70
2019-01-29T19:38:31.959Z,23.13
2019-01-29T19:40:59.497Z,23.33
2019-01-29T19:43:27.166Z,21.73
2019-01-29T19:45:54.650Z,20.20
2019-01-29T19:48:22.145Z,22.17
2019-01-29T19:50:49.659Z,22.70
2019-01-29T19:53:17.189Z,22.00
2019-01-29T19:55:44.660Z,21.07
2019-01-29T19:58:12.179Z,20.00
2019-01-29T20:00:40.675Z,23.60
2019-01-29T20:03:08.172Z,25.70
2019-01-29T20:05:35.698Z,23.10
2019-01-29T20:08:03.284Z,23.10
2019-01-29T20:10:30.744Z,22.93
2019-01-29T20:12:58.244Z,22.50
2019-01-29T20:15:26.001Z,25.00
2019-01-29T20:17:54.476Z,24.73
2019-01-29T20:20:25.961Z,25.53
2019-01-29T20:22:53.429Z,22.80
2019-01-29T20:25:20.920Z,23.53
2019-01-29T20:27:48.436Z,27.03
2019-01-29T20:30:20.631Z,23.13
2019-01-29T20:32:53.333Z,21.80
2019-01-29T20:35:17.334Z,22.50
2019-01-29T20:37:44.790Z,22.40
2019-01-29T20:40:16.707Z,27.63
2019-01-29T20:42:44.208Z,33.63
2019-01-29T20:45:12.375Z,25.50
2019-01-29T20:47:39.852Z,25.90
2019-01-29T20:50:08.883Z,29.40
2019-01-29T20:52:36.474Z,28.73
2019-01-29T20:55:05.060Z,26.10
2019-01-29T20:57:32.578Z,27.50
2019-01-29T21:00:00.296Z,28.10
2019-01-29T21:02:27.939Z,28.50
2019-01-29T21:04:55.460Z,30.13
2019-01-29T21:07:22.980Z,32.90
2019-01-29T21:09:50.506Z,29.50
2019-01-29T21:12:20.060Z,35.50
2019-01-29T21:14:47.267Z,29.03
2019-01-29T21:17:14.790Z,27.13
2019-01-29T21:19:42.374Z,34.03
2019-01-29T21:22:09.982Z,29.63
2019-01-29T21:24:37.567Z,32.57
2019-01-29T21:27:05.342Z,28.17
2019-01-29T21:29:32.884Z,32.87
2019-01-29T21:32:00.342Z,27.20
2019-01-29T21:34:30.903Z,27.23
2019-01-29T21:36:58.392Z,29.23
2019-01-29T21:39:25.921Z,33.43
2019-01-29T21:41:53.524Z,28.70
2019-01-29T21:44:21.722Z,32.53
2019-01-29T21:46:49.262Z,27.70
2019-01-29T21:49:16.840Z,29.90
2019-01-29T21:51:44.370Z,31.03
2019-01-29T21:54:11.820Z,25.23
2019-01-29T21:56:39.314Z,27.40
2019-01-29T21:59:13.101Z,29.10
2019-01-29T22:01:35.991Z,28.70
2019-01-29T22:04:03.458Z,25.97
2019-01-29T22:06:30.961Z,28.83
2019-01-29T22:08:58.445Z,28.20
2019-01-29T22:11:25.959Z,26.73
2019-01-29T22:13:53.454Z,26.30
2019-01-29T22:16:20.940Z,28.30
2019-01-29T22:18:48.435Z,31.63
2019-01-29T22:21:15.979Z,28.23
2019-01-29T22:23:43.513Z,28.37
2019-01-29T22:26:11.037Z,27.57
2019-01-29T22:28:38.574Z,26.03
2019-01-29T22:31:06.251Z,25.47
2019-01-29T22:33:33.761Z,25.20
2019-01-29T22:36:01.307Z,25.93
2019-01-29T22:38:28.843Z,26.10
2019-01-29T22:40:56.386Z,26.83
2019-01-29T22:43:23.849Z,29.43
2019-01-29T22:45:51.359Z,30.70
2019-01-29T22:48:18.843Z,29.60
2019-01-29T22:50:46.403Z,32.60
2019-01-29T22:53:13.867Z,26.27
2019-01-29T22:55:41.357Z,30.20
2019-01-29T22:58:08.937Z,27.67
2019-01-29T23:00:48.612Z,25.07
2019-01-29T23:03:16.964Z,28.00
2019-01-29T23:05:45.028Z,26.93
2019-01-29T23:08:12.533Z,26.30
2019-01-29T23:10:40.095Z,27.53
2019-01-29T23:13:07.634Z,28.50
2019-01-29T23:15:35.227Z,30.00
2019-01-29T23:18:02.689Z,27.60
2019-01-29T23:20:30.167Z,30.10
2019-01-29T23:22:57.740Z,25.47
2019-01-29T23:25:25.207Z,27.03
2019-01-29T23:27:52.683Z,30.50
2019-01-29T23:30:21.071Z,30.47
2019-01-29T23:32:48.553Z,27.30
2019-01-29T23:35:16.016Z,25.73
2019-01-29T23:37:43.572Z,30.50
2019-01-29T23:40:17.380Z,26.17
2019-01-29T23:42:44.880Z,26.80
2019-01-29T23:45:13.319Z,29.30
2019-01-29T23:47:40.769Z,31.00
2019-01-29T23:50:09.712Z,28.20
2019-01-29T23:52:37.205Z,26.50
2019-01-29T23:55:06.374Z,28.67
2019-01-29T23:57:33.845Z,23.40
